createdAt,value
2023-06-07T00:00:02.267Z,59.66
2023-06-07T00:02:42.370Z,59.54
2023-06-07T00:04:54.929Z,58.30
2023-06-07T00:07:21.384Z,59.55
2023-06-07T00:09:47.924Z,60.52
2023-06-07T00:12:14.364Z,59.98
2023-06-07T00:14:40.776Z,59.93
2023-06-07T00:17:07.236Z,59.88
2023-06-07T00:19:33.754Z,60.02
2023-06-07T00:22:00.358Z,59.89
2023-06-07T00:24:26.834Z,60.40
2023-06-07T00:26:53.354Z,59.74
2023-06-07T00:29:19.798Z,60.22
2023-06-07T00:31:46.226Z,60.90
2023-06-07T00:34:12.683Z,59.99
2023-06-07T00:36:39.182Z,61.10
2023-06-07T00:39:05.773Z,59.79
2023-06-07T00:41:32.275Z,60.01
2023-06-07T00:43:58.694Z,60.58
2023-06-07T00:46:25.122Z,60.79
2023-06-07T00:48:51.670Z,61.14
2023-06-07T00:51:18.106Z,61.05
2023-06-07T00:53:44.526Z,59.61
2023-06-07T00:56:11.075Z,59.21
2023-06-07T00:58:37.500Z,58.90
2023-06-07T01:01:04.042Z,59.69
2023-06-07T01:03:30.579Z,60.01
2023-06-07T01:05:56.897Z,60.22
2023-06-07T01:08:23.444Z,60.64
2023-06-07T01:10:49.872Z,59.70
2023-06-07T01:13:16.411Z,60.29
2023-06-07T01:15:42.992Z,60.06
2023-06-07T01:18:09.425Z,59.20
2023-06-07T01:20:35.806Z,59.65
2023-06-07T01:23:02.354Z,58.78
2023-06-07T01:25:28.881Z,59.70
2023-06-07T01:27:55.304Z,59.71
2023-06-07T01:30:21.859Z,59.67
2023-06-07T01:32:48.404Z,59.76
2023-06-07T01:35:14.942Z,59.47
2023-06-07T01:37:41.346Z,59.86
2023-06-07T01:40:07.777Z,59.48
2023-06-07T01:42:34.327Z,59.15
2023-06-07T01:45:00.781Z,59.04
2023-06-07T01:47:27.325Z,58.89
2023-06-07T01:49:53.688Z,59.84
2023-06-07T01:52:20.162Z,59.71
2023-06-07T01:54:46.695Z,59.38
2023-06-07T01:57:13.113Z,59.44
2023-06-07T01:59:39.577Z,59.09
2023-06-07T02:02:06.080Z,59.55
2023-06-07T02:04:32.534Z,59.94
2023-06-07T02:06:59.053Z,59.81
2023-06-07T02:09:25.600Z,60.01
2023-06-07T02:11:52.139Z,60.39
2023-06-07T02:14:18.554Z,59.95
2023-06-07T02:16:45.066Z,59.96
2023-06-07T02:19:11.521Z,59.31
2023-06-07T02:21:37.973Z,59.40
2023-06-07T02:24:04.477Z,58.97
2023-06-07T02:26:30.938Z,58.95
2023-06-07T02:28:57.485Z,58.76
2023-06-07T02:31:24.028Z,59.24
2023-06-07T02:33:50.548Z,60.09
2023-06-07T02:36:16.981Z,59.76
2023-06-07T02:38:43.518Z,59.78
2023-06-07T02:41:09.935Z,60.63
2023-06-07T02:43:36.553Z,60.40
2023-06-07T02:46:03.045Z,59.95
2023-06-07T02:48:29.542Z,59.59
2023-06-07T02:50:55.983Z,60.39
2023-06-07T02:53:22.727Z,60.28
2023-06-07T02:55:49.171Z,60.29
2023-06-07T02:58:15.687Z,59.76
2023-06-07T03:00:42.254Z,59.98
2023-06-07T03:03:08.868Z,59.77
2023-06-07T03:05:35.207Z,60.22
2023-06-07T03:08:01.732Z,60.40
2023-06-07T03:10:28.190Z,59.78
2023-06-07T03:12:54.811Z,60.16
2023-06-07T03:15:21.335Z,59.96
2023-06-07T03:17:47.964Z,60.96
2023-06-07T03:20:14.423Z,60.36
2023-06-07T03:22:40.949Z,60.68
2023-06-07T03:25:07.483Z,59.87
2023-06-07T03:27:33.986Z,60.25
2023-06-07T03:30:00.456Z,60.10
2023-06-07T03:32:27.076Z,60.56
2023-06-07T03:34:53.467Z,60.78
2023-06-07T03:37:19.951Z,60.43
2023-06-07T03:39:46.491Z,60.56
2023-06-07T03:42:12.978Z,60.96
2023-06-07T03:44:39.468Z,60.25
2023-06-07T03:47:06.011Z,60.26
2023-06-07T03:49:32.537Z,59.97
2023-06-07T03:51:58.972Z,60.83
2023-06-07T03:54:25.495Z,61.24
2023-06-07T03:56:52.028Z,61.53
2023-06-07T03:59:18.487Z,61.33
2023-06-07T04:01:44.990Z,60.53
2023-06-07T04:04:11.599Z,60.96
2023-06-07T04:06:37.859Z,61.10
2023-06-07T04:09:04.296Z,60.87
2023-06-07T04:11:30.991Z,60.97
2023-06-07T04:13:57.397Z,60.67
2023-06-07T04:16:23.891Z,61.26
2023-06-07T04:18:50.328Z,61.00
2023-06-07T04:21:16.767Z,61.00
2023-06-07T04:23:43.259Z,60.98
2023-06-07T04:26:09.886Z,61.08
2023-06-07T04:28:36.281Z,61.31
2023-06-07T04:31:02.815Z,60.89
2023-06-07T04:33:29.409Z,60.42
2023-06-07T04:35:55.913Z,60.49
2023-06-07T04:38:23.391Z,60.69
2023-06-07T04:40:48.855Z,60.40
2023-06-07T04:43:15.391Z,61.39
2023-06-07T04:45:41.929Z,61.97
2023-06-07T04:48:08.508Z,61.99
2023-06-07T04:50:34.999Z,62.37
2023-06-07T04:53:01.439Z,61.66
2023-06-07T04:55:27.943Z,61.02
2023-06-07T04:57:54.495Z,61.91
2023-06-07T05:00:21.185Z,64.24
2023-06-07T05:02:47.764Z,64.48
2023-06-07T05:05:14.212Z,64.43
2023-06-07T05:07:40.629Z,65.21
2023-06-07T05:10:07.584Z,66.94
2023-06-07T05:12:33.935Z,67.45
2023-06-07T05:15:00.452Z,67.36
2023-06-07T05:17:26.885Z,69.14
2023-06-07T05:19:53.309Z,69.88
2023-06-07T05:22:19.849Z,69.48
2023-06-07T05:24:46.307Z,67.58
2023-06-07T05:27:12.831Z,67.64
2023-06-07T05:29:39.389Z,69.53
2023-06-07T05:32:08.002Z,68.66
2023-06-07T05:34:34.479Z,69.02
2023-06-07T05:37:00.924Z,69.77
2023-06-07T05:39:27.456Z,68.24
2023-06-07T05:41:53.901Z,67.86
2023-06-07T05:44:20.396Z,67.96
2023-06-07T05:46:47.102Z,69.18
2023-06-07T05:49:13.572Z,68.15
2023-06-07T05:51:40.041Z,66.45
2023-06-07T05:54:06.557Z,66.70
2023-06-07T05:56:33.005Z,65.83
2023-06-07T05:58:59.626Z,66.92
2023-06-07T06:01:26.173Z,66.82
2023-06-07T06:03:52.721Z,67.42
2023-06-07T06:06:19.227Z,66.22
2023-06-07T06:08:46.100Z,65.84
2023-06-07T06:11:12.605Z,65.11
2023-06-07T06:13:39.030Z,64.81
2023-06-07T06:16:05.467Z,65.13
2023-06-07T06:18:31.896Z,64.26
2023-06-07T06:20:58.484Z,63.60
2023-06-07T06:23:24.977Z,61.49
2023-06-07T06:25:51.462Z,60.55
2023-06-07T06:28:17.992Z,60.35
2023-06-07T06:30:46.054Z,61.24
2023-06-07T06:33:12.722Z,62.41
2023-06-07T06:35:42.053Z,62.44
2023-06-07T06:38:08.729Z,62.93
2023-06-07T06:40:35.114Z,63.57
2023-06-07T06:43:01.575Z,64.44
2023-06-07T06:45:28.097Z,65.32
2023-06-07T06:47:54.625Z,62.09
2023-06-07T06:50:31.894Z,60.68
2023-06-07T06:52:47.622Z,60.58
2023-06-07T06:55:16.192Z,60.20
2023-06-07T06:57:42.726Z,61.16
2023-06-07T07:00:09.259Z,61.39
2023-06-07T07:02:35.923Z,60.82
2023-06-07T07:05:02.459Z,59.50
2023-06-07T07:07:28.955Z,59.03
2023-06-07T07:09:55.505Z,59.57
2023-06-07T07:12:22.191Z,59.02
2023-06-07T07:14:51.881Z,58.96
2023-06-07T07:17:15.622Z,58.81
2023-06-07T07:19:42.160Z,58.87
2023-06-07T07:22:08.597Z,58.82
2023-06-07T07:24:35.129Z,57.36
2023-06-07T07:27:01.590Z,57.11
2023-06-07T07:29:29.061Z,57.65
2023-06-07T07:31:54.672Z,57.07
2023-06-07T07:34:21.336Z,57.34
2023-06-07T07:36:47.750Z,58.12
2023-06-07T07:39:14.162Z,57.74
2023-06-07T07:41:40.582Z,56.64
2023-06-07T07:44:07.123Z,56.05
2023-06-07T07:46:33.763Z,56.20
2023-06-07T07:49:00.216Z,55.75
2023-06-07T07:51:26.699Z,55.88
2023-06-07T07:53:53.537Z,55.48
2023-06-07T07:56:19.884Z,54.91
2023-06-07T07:58:46.306Z,54.66
2023-06-07T08:01:12.843Z,55.53
2023-06-07T08:03:39.613Z,56.13
2023-06-07T08:06:05.749Z,56.48
2023-06-07T08:08:32.208Z,55.78
2023-06-07T08:10:58.684Z,54.61
2023-06-07T08:13:25.106Z,54.33
2023-06-07T08:15:51.707Z,53.89
2023-06-07T08:18:18.054Z,53.22
2023-06-07T08:20:44.479Z,53.01
2023-06-07T08:23:12.267Z,52.18
2023-06-07T08:25:37.545Z,52.15
2023-06-07T08:28:04.009Z,53.15
2023-06-07T08:30:30.467Z,53.82
2023-06-07T08:32:56.886Z,53.72
2023-06-07T08:35:23.317Z,52.57
2023-06-07T08:37:49.747Z,52.87
2023-06-07T08:40:18.766Z,51.59
2023-06-07T08:42:42.794Z,51.91
2023-06-07T08:45:09.252Z,51.71
2023-06-07T08:47:35.859Z,51.34
2023-06-07T08:50:02.404Z,52.13
2023-06-07T08:52:28.662Z,51.87
2023-06-07T08:54:55.090Z,51.33
2023-06-07T08:57:21.768Z,50.51
2023-06-07T08:59:48.264Z,50.86
2023-06-07T09:02:14.729Z,51.10
2023-06-07T09:04:41.239Z,50.79
2023-06-07T09:07:07.779Z,50.24
2023-06-07T09:09:34.579Z,48.91
2023-06-07T09:12:00.809Z,48.50
2023-06-07T09:14:27.629Z,49.05
2023-06-07T09:16:54.160Z,49.26
2023-06-07T09:19:20.550Z,49.91
2023-06-07T09:21:46.981Z,50.05
2023-06-07T09:24:13.467Z,50.05
2023-06-07T09:26:40.231Z,49.43
2023-06-07T09:29:06.377Z,49.24
2023-06-07T09:31:33.046Z,48.41
2023-06-07T09:33:59.490Z,49.00
2023-06-07T09:36:25.936Z,48.15
2023-06-07T09:38:52.428Z,48.52
2023-06-07T09:41:18.871Z,48.69
2023-06-07T09:43:45.312Z,48.78
2023-06-07T09:46:11.912Z,48.63
2023-06-07T09:48:38.415Z,47.98
2023-06-07T09:51:04.826Z,48.15
2023-06-07T09:53:31.328Z,46.71
2023-06-07T09:55:57.824Z,47.30
2023-06-07T09:58:24.318Z,47.66
2023-06-07T10:00:50.899Z,46.73
2023-06-07T10:03:17.809Z,45.86
2023-06-07T10:05:44.609Z,46.46
2023-06-07T10:08:11.063Z,46.41
2023-06-07T10:10:37.476Z,46.75
2023-06-07T10:13:03.928Z,46.75
2023-06-07T10:15:30.393Z,47.00
2023-06-07T10:17:57.001Z,47.13
2023-06-07T10:20:23.164Z,47.14
2023-06-07T10:22:49.656Z,46.63
2023-06-07T10:25:16.192Z,46.25
2023-06-07T10:27:42.672Z,46.03
2023-06-07T10:30:09.145Z,45.57
2023-06-07T10:32:35.708Z,46.12
2023-06-07T10:35:02.037Z,46.56
2023-06-07T10:37:28.627Z,46.74
2023-06-07T10:39:55.145Z,47.05
2023-06-07T10:42:21.623Z,47.06
2023-06-07T10:44:48.087Z,47.33
2023-06-07T10:47:14.746Z,47.18
2023-06-07T10:49:41.167Z,47.18
2023-06-07T10:52:07.589Z,46.86
2023-06-07T10:54:34.115Z,47.39
2023-06-07T10:57:00.661Z,48.02
2023-06-07T10:59:27.176Z,47.32
2023-06-07T11:01:53.855Z,47.48
2023-06-07T11:04:20.326Z,47.66
2023-06-07T11:06:46.568Z,47.68
2023-06-07T11:09:13.316Z,47.40
2023-06-07T11:11:39.885Z,46.96
2023-06-07T11:14:06.358Z,46.97
2023-06-07T11:16:32.877Z,47.26
2023-06-07T11:18:59.368Z,47.12
2023-06-07T11:21:25.772Z,47.41
2023-06-07T11:23:52.233Z,47.67
2023-06-07T11:26:18.761Z,47.45
2023-06-07T11:28:45.261Z,47.56
2023-06-07T11:31:11.835Z,47.39
2023-06-07T11:33:38.182Z,47.10
2023-06-07T11:36:04.703Z,47.73
2023-06-07T11:38:31.342Z,47.78
2023-06-07T11:40:57.902Z,47.45
2023-06-07T11:43:24.672Z,47.65
2023-06-07T11:45:51.066Z,48.30
2023-06-07T11:48:17.650Z,48.08
2023-06-07T11:50:44.014Z,47.72
2023-06-07T11:53:13.299Z,46.90
2023-06-07T11:55:37.091Z,47.50
2023-06-07T11:58:03.631Z,47.33
2023-06-07T12:00:30.257Z,47.52
2023-06-07T12:02:57.036Z,47.60
2023-06-07T12:05:23.327Z,47.29
2023-06-07T12:07:50.261Z,47.32
2023-06-07T12:10:16.805Z,46.70
2023-06-07T12:12:43.476Z,47.46
2023-06-07T12:15:10.292Z,47.28
2023-06-07T12:17:36.897Z,47.14
2023-06-07T12:20:03.561Z,47.32
2023-06-07T12:22:29.921Z,47.32
2023-06-07T12:24:56.730Z,47.29
2023-06-07T12:27:24.507Z,47.24
2023-06-07T12:29:53.349Z,47.41
2023-06-07T12:32:19.856Z,47.13
2023-06-07T12:34:46.363Z,47.06
2023-06-07T12:37:13.005Z,46.97
2023-06-07T12:39:39.442Z,47.04
2023-06-07T12:42:05.957Z,47.25
2023-06-07T12:44:32.515Z,47.56
2023-06-07T12:47:00.155Z,47.94
2023-06-07T12:49:26.559Z,47.85
2023-06-07T12:51:52.940Z,48.09
2023-06-07T12:54:19.392Z,48.10
2023-06-07T12:56:45.866Z,48.07
2023-06-07T12:59:12.336Z,48.17
2023-06-07T13:01:39.008Z,48.72
2023-06-07T13:04:05.675Z,48.45
2023-06-07T13:06:32.049Z,49.06
2023-06-07T13:08:58.531Z,49.07
2023-06-07T13:11:25.019Z,49.17
2023-06-07T13:13:51.635Z,49.23
2023-06-07T13:16:18.194Z,49.33
2023-06-07T13:18:45.697Z,49.60
2023-06-07T13:21:12.057Z,49.63
2023-06-07T13:23:38.476Z,49.41
2023-06-07T13:26:04.933Z,49.50
2023-06-07T13:28:31.971Z,50.04
2023-06-07T13:30:58.527Z,50.09
2023-06-07T13:33:25.056Z,50.30
2023-06-07T13:35:51.587Z,50.10
2023-06-07T13:38:17.992Z,49.96
2023-06-07T13:40:44.460Z,50.19
2023-06-07T13:43:10.863Z,50.66
2023-06-07T13:45:37.361Z,50.73
2023-06-07T13:48:03.903Z,50.71
2023-06-07T13:50:30.363Z,51.22
2023-06-07T13:52:56.779Z,51.44
2023-06-07T13:55:23.256Z,51.18
2023-06-07T13:57:49.739Z,51.20
2023-06-07T14:00:16.334Z,50.54
2023-06-07T14:02:43.063Z,50.48
2023-06-07T14:05:09.422Z,50.30
2023-06-07T14:07:35.835Z,50.90
2023-06-07T14:10:02.380Z,50.92
2023-06-07T14:12:28.890Z,50.87
2023-06-07T14:14:55.346Z,49.96
2023-06-07T14:17:21.892Z,50.16
2023-06-07T14:19:48.429Z,50.46
2023-06-07T14:22:17.157Z,50.66
2023-06-07T14:24:41.266Z,50.59
2023-06-07T14:27:07.698Z,50.79
2023-06-07T14:29:34.197Z,50.65
2023-06-07T14:32:00.814Z,50.89
2023-06-07T14:34:27.081Z,51.20
2023-06-07T14:36:53.688Z,51.67
2023-06-07T14:39:20.177Z,52.48
2023-06-07T14:41:46.715Z,52.79
2023-06-07T14:44:13.268Z,52.82
2023-06-07T14:46:39.871Z,53.36
2023-06-07T14:49:06.319Z,53.69
2023-06-07T14:51:32.780Z,54.04
2023-06-07T14:53:59.283Z,53.95
2023-06-07T14:56:25.710Z,54.54
2023-06-07T14:58:52.260Z,54.44
2023-06-07T15:01:18.952Z,54.66
2023-06-07T15:03:45.345Z,54.88
2023-06-07T15:06:11.650Z,54.69
2023-06-07T15:08:38.289Z,54.78
2023-06-07T15:11:04.854Z,54.82
2023-06-07T15:13:31.256Z,54.65
2023-06-07T15:15:57.734Z,54.86
2023-06-07T15:18:24.187Z,55.07
2023-06-07T15:20:50.671Z,55.49
2023-06-07T15:23:17.220Z,55.59
2023-06-07T15:25:43.676Z,56.14
2023-06-07T15:28:10.133Z,56.10
2023-06-07T15:30:36.635Z,56.56
2023-06-07T15:33:03.123Z,56.40
2023-06-07T15:35:29.495Z,56.60
2023-06-07T15:37:56.066Z,56.78
2023-06-07T15:40:22.508Z,56.88
2023-06-07T15:42:48.940Z,56.95
2023-06-07T15:45:16.541Z,57.22
2023-06-07T15:47:43.025Z,56.85
2023-06-07T15:50:09.495Z,56.40
2023-06-07T15:52:35.946Z,56.08
2023-06-07T15:55:02.493Z,56.10
2023-06-07T15:57:29.007Z,56.33
2023-06-07T15:59:55.549Z,55.92
2023-06-07T16:02:22.029Z,55.87
2023-06-07T16:04:49.262Z,56.11
2023-06-07T16:07:15.616Z,56.10
2023-06-07T16:09:42.079Z,55.76
2023-06-07T16:12:08.523Z,55.49
2023-06-07T16:14:34.958Z,54.76
2023-06-07T16:17:01.453Z,54.54
2023-06-07T16:19:27.960Z,54.56
2023-06-07T16:21:54.764Z,54.65
2023-06-07T16:24:21.883Z,54.91
2023-06-07T16:26:48.448Z,55.45
2023-06-07T16:29:14.997Z,55.31
2023-06-07T16:31:41.517Z,55.86
2023-06-07T16:34:08.070Z,56.66
2023-06-07T16:36:34.488Z,57.43
2023-06-07T16:39:01.041Z,58.18
2023-06-07T16:41:27.499Z,58.58
2023-06-07T16:43:53.933Z,59.33
2023-06-07T16:46:20.469Z,58.90
2023-06-07T16:48:46.971Z,59.05
2023-06-07T16:51:13.415Z,59.22
2023-06-07T16:53:39.834Z,59.44
2023-06-07T16:56:06.394Z,59.85
2023-06-07T16:58:32.895Z,59.85
2023-06-07T17:00:59.807Z,60.43
2023-06-07T17:03:26.512Z,60.15
2023-06-07T17:05:52.818Z,59.90
2023-06-07T17:08:19.367Z,60.21
2023-06-07T17:10:45.951Z,60.93
2023-06-07T17:13:12.412Z,60.84
2023-06-07T17:15:38.929Z,61.77
2023-06-07T17:18:05.460Z,61.51
2023-06-07T17:20:31.844Z,61.53
2023-06-07T17:22:58.253Z,62.25
2023-06-07T17:25:24.688Z,62.62
2023-06-07T17:27:51.231Z,62.71
2023-06-07T17:30:17.775Z,62.90
2023-06-07T17:32:44.240Z,62.17
2023-06-07T17:35:10.721Z,62.02
2023-06-07T17:37:37.188Z,62.07
2023-06-07T17:40:06.061Z,62.51
2023-06-07T17:42:32.381Z,62.20
2023-06-07T17:44:58.927Z,62.46
2023-06-07T17:47:25.413Z,62.30
2023-06-07T17:49:51.943Z,62.70
2023-06-07T17:52:23.193Z,62.63
2023-06-07T17:54:45.056Z,62.33
2023-06-07T17:57:11.644Z,62.50
2023-06-07T17:59:38.199Z,62.40
2023-06-07T18:02:04.819Z,63.21
2023-06-07T18:04:31.417Z,63.72
2023-06-07T18:06:58.078Z,64.02
2023-06-07T18:09:24.393Z,63.11
2023-06-07T18:11:50.920Z,63.12
2023-06-07T18:14:17.340Z,63.81
2023-06-07T18:16:43.895Z,63.93
2023-06-07T18:19:10.433Z,64.54
2023-06-07T18:21:37.218Z,64.75
2023-06-07T18:24:03.673Z,64.96
2023-06-07T18:26:30.491Z,64.69
2023-06-07T18:28:56.992Z,65.21
2023-06-07T18:31:23.506Z,65.36
2023-06-07T18:33:50.001Z,65.31
2023-06-07T18:36:16.442Z,65.61
2023-06-07T18:38:42.910Z,65.60
2023-06-07T18:41:09.336Z,65.91
2023-06-07T18:43:35.766Z,66.15
2023-06-07T18:46:02.230Z,66.36
2023-06-07T18:48:28.666Z,66.89
2023-06-07T18:50:55.182Z,66.94
2023-06-07T18:53:21.719Z,67.00
2023-06-07T18:55:48.173Z,66.96
2023-06-07T18:58:15.472Z,67.31
2023-06-07T19:00:41.269Z,68.00
2023-06-07T19:03:07.883Z,68.15
2023-06-07T19:05:34.125Z,68.29
2023-06-07T19:08:00.629Z,68.52
2023-06-07T19:10:27.176Z,68.89
2023-06-07T19:12:53.700Z,68.77
2023-06-07T19:15:22.480Z,68.74
2023-06-07T19:17:48.957Z,69.24
2023-06-07T19:20:15.352Z,69.31
2023-06-07T19:22:41.874Z,69.80
2023-06-07T19:25:08.728Z,69.93
2023-06-07T19:27:34.932Z,70.18
2023-06-07T19:30:01.404Z,69.90
2023-06-07T19:32:27.853Z,70.26
2023-06-07T19:34:54.330Z,70.75
2023-06-07T19:37:20.858Z,70.81
2023-06-07T19:39:47.426Z,72.14
2023-06-07T19:42:15.520Z,72.22
2023-06-07T19:44:40.444Z,71.83
2023-06-07T19:47:06.863Z,71.64
2023-06-07T19:49:33.425Z,71.79
2023-06-07T19:52:00.394Z,71.85
2023-06-07T19:54:26.951Z,71.55
2023-06-07T19:56:53.488Z,71.72
2023-06-07T19:59:19.904Z,72.79
2023-06-07T20:01:46.498Z,72.49
2023-06-07T20:04:12.953Z,73.24
2023-06-07T20:06:39.424Z,73.05
2023-06-07T20:09:05.844Z,73.11
2023-06-07T20:11:32.396Z,73.10
2023-06-07T20:13:58.938Z,73.20
2023-06-07T20:16:25.412Z,72.87
2023-06-07T20:18:51.905Z,72.94
2023-06-07T20:21:18.459Z,73.25
2023-06-07T20:23:44.953Z,73.17
2023-06-07T20:26:11.448Z,73.18
2023-06-07T20:28:37.968Z,73.43
2023-06-07T20:31:04.351Z,73.43
2023-06-07T20:33:30.899Z,73.84
2023-06-07T20:35:57.329Z,74.14
2023-06-07T20:38:23.876Z,74.48
2023-06-07T20:40:50.399Z,74.45
2023-06-07T20:43:16.837Z,75.02
2023-06-07T20:45:43.403Z,75.20
2023-06-07T20:48:09.989Z,74.93
2023-06-07T20:50:36.326Z,74.89
2023-06-07T20:53:02.783Z,75.36
2023-06-07T20:55:29.190Z,75.66
2023-06-07T20:57:55.657Z,75.18
2023-06-07T21:00:22.159Z,75.57
2023-06-07T21:02:48.723Z,75.80
2023-06-07T21:05:15.102Z,76.30
2023-06-07T21:07:41.588Z,76.78
2023-06-07T21:10:08.247Z,76.61
2023-06-07T21:12:34.559Z,76.79
2023-06-07T21:15:00.971Z,76.83
2023-06-07T21:17:27.439Z,77.16
2023-06-07T21:19:54.152Z,77.17
2023-06-07T21:22:20.695Z,77.31
2023-06-07T21:24:47.099Z,77.24
2023-06-07T21:27:13.657Z,76.84
2023-06-07T21:29:40.121Z,77.02
2023-06-07T21:32:06.698Z,76.90
2023-06-07T21:34:33.051Z,76.79
2023-06-07T21:36:59.529Z,77.38
2023-06-07T21:39:26.026Z,76.97
2023-06-07T21:41:54.847Z,76.44
2023-06-07T21:44:22.875Z,76.34
2023-06-07T21:46:47.881Z,75.97
2023-06-07T21:49:14.408Z,75.90
2023-06-07T21:51:40.964Z,75.54
2023-06-07T21:54:07.490Z,75.50
2023-06-07T21:56:33.954Z,75.29
2023-06-07T21:59:00.455Z,74.86
2023-06-07T22:01:27.078Z,75.22
2023-06-07T22:03:53.504Z,74.46
2023-06-07T22:06:20.066Z,74.00
2023-06-07T22:08:46.465Z,73.17
2023-06-07T22:11:13.094Z,73.53
2023-06-07T22:13:39.505Z,72.81
2023-06-07T22:16:05.963Z,73.34
2023-06-07T22:18:32.393Z,73.05
2023-06-07T22:20:58.875Z,72.31
2023-06-07T22:23:25.317Z,72.50
2023-06-07T22:25:51.840Z,71.89
2023-06-07T22:28:18.369Z,71.74
2023-06-07T22:30:44.917Z,70.87
2023-06-07T22:33:11.372Z,70.42
2023-06-07T22:35:37.737Z,69.54
2023-06-07T22:38:04.206Z,70.00
2023-06-07T22:40:30.751Z,69.43
2023-06-07T22:42:57.150Z,69.76
2023-06-07T22:45:23.718Z,69.30
2023-06-07T22:47:50.203Z,69.20
2023-06-07T22:50:16.690Z,68.69
2023-06-07T22:52:43.127Z,68.48
2023-06-07T22:55:09.667Z,68.09
2023-06-07T22:57:36.188Z,68.03
2023-06-07T23:00:02.746Z,67.32
2023-06-07T23:02:29.034Z,67.41
2023-06-07T23:04:55.476Z,66.86
2023-06-07T23:07:21.906Z,67.05
2023-06-07T23:09:48.339Z,67.09
2023-06-07T23:12:14.909Z,67.23
2023-06-07T23:14:41.318Z,67.19
2023-06-07T23:17:07.752Z,67.86
2023-06-07T23:19:34.283Z,67.09
2023-06-07T23:22:00.707Z,67.73
2023-06-07T23:24:27.260Z,67.92
2023-06-07T23:26:53.797Z,68.13
2023-06-07T23:29:20.435Z,67.28
2023-06-07T23:31:46.878Z,67.56
2023-06-07T23:34:13.410Z,67.29
2023-06-07T23:36:40.456Z,66.95
2023-06-07T23:39:06.972Z,66.04
2023-06-07T23:41:33.397Z,67.05
2023-06-07T23:43:59.894Z,66.94
2023-06-07T23:46:26.286Z,66.61
2023-06-07T23:48:52.829Z,66.33
2023-06-07T23:51:19.335Z,65.56
2023-06-07T23:53:45.788Z,65.44
2023-06-07T23:56:12.207Z,65.17
2023-06-07T23:58:38.753Z,65.23
